sensor_id;sensor_type;location;lat;lon;timestamp;temperature;humidity
61339;DHT22;47213;52.362;4.606;2023-08-08T00:04:27;18.40;92.90
61339;DHT22;47213;52.362;4.606;2023-08-08T00:19:27;18.50;92.60
61339;DHT22;47213;52.362;4.606;2023-08-08T00:24:27;18.40;92.60
61339;DHT22;47213;52.362;4.606;2023-08-08T00:29:27;18.60;91.90
61339;DHT22;47213;52.362;4.606;2023-08-08T00:34:27;18.50;90.50
61339;DHT22;47213;52.362;4.606;2023-08-08T00:39:27;18.60;90.10
61339;DHT22;47213;52.362;4.606;2023-08-08T00:44:27;18.50;87.80
61339;DHT22;47213;52.362;4.606;2023-08-08T00:49:27;18.60;89.50
61339;DHT22;47213;52.362;4.606;2023-08-08T01:14:27;18.70;84.30
61339;DHT22;47213;52.362;4.606;2023-08-08T01:19:27;18.90;84.40
61339;DHT22;47213;52.362;4.606;2023-08-08T01:24:27;18.70;84.80
61339;DHT22;47213;52.362;4.606;2023-08-08T01:29:27;18.80;85.80
61339;DHT22;47213;52.362;4.606;2023-08-08T01:39:28;18.70;85.60
61339;DHT22;47213;52.362;4.606;2023-08-08T01:44:27;18.50;87.00
61339;DHT22;47213;52.362;4.606;2023-08-08T02:04:27;18.40;84.00
61339;DHT22;47213;52.362;4.606;2023-08-08T02:14:27;18.20;80.80
61339;DHT22;47213;52.362;4.606;2023-08-08T02:29:27;18.10;86.00
61339;DHT22;47213;52.362;4.606;2023-08-08T02:39:27;17.90;87.60
61339;DHT22;47213;52.362;4.606;2023-08-08T02:49:27;18.00;86.40
61339;DHT22;47213;52.362;4.606;2023-08-08T02:54:27;17.80;86.00
61339;DHT22;47213;52.362;4.606;2023-08-08T02:59:27;17.70;84.70
61339;DHT22;47213;52.362;4.606;2023-08-08T03:04:27;17.60;84.20
61339;DHT22;47213;52.362;4.606;2023-08-08T03:09:27;17.70;83.70
61339;DHT22;47213;52.362;4.606;2023-08-08T03:14:27;17.60;83.10
61339;DHT22;47213;52.362;4.606;2023-08-08T03:24:28;17.40;82.50
61339;DHT22;47213;52.362;4.606;2023-08-08T03:29:27;17.50;83.60
61339;DHT22;47213;52.362;4.606;2023-08-08T03:34:28;17.60;81.30
61339;DHT22;47213;52.362;4.606;2023-08-08T03:44:28;17.40;82.30
61339;DHT22;47213;52.362;4.606;2023-08-08T03:49:28;17.60;84.50
61339;DHT22;47213;52.362;4.606;2023-08-08T03:59:28;17.70;88.70
61339;DHT22;47213;52.362;4.606;2023-08-08T04:04:28;17.60;90.00
61339;DHT22;47213;52.362;4.606;2023-08-08T04:09:28;17.70;89.60
61339;DHT22;47213;52.362;4.606;2023-08-08T04:14:28;17.50;87.80
61339;DHT22;47213;52.362;4.606;2023-08-08T04:24:28;17.30;84.10
61339;DHT22;47213;52.362;4.606;2023-08-08T04:34:28;17.20;83.90
61339;DHT22;47213;52.362;4.606;2023-08-08T04:39:28;17.30;85.70
61339;DHT22;47213;52.362;4.606;2023-08-08T04:44:28;17.20;82.90
61339;DHT22;47213;52.362;4.606;2023-08-08T04:49:28;17.30;85.80
61339;DHT22;47213;52.362;4.606;2023-08-08T04:54:28;17.20;85.70
61339;DHT22;47213;52.362;4.606;2023-08-08T04:59:28;17.30;86.60
61339;DHT22;47213;52.362;4.606;2023-08-08T05:04:28;17.10;85.60
61339;DHT22;47213;52.362;4.606;2023-08-08T05:19:28;17.20;87.70
61339;DHT22;47213;52.362;4.606;2023-08-08T05:34:28;17.10;86.90
61339;DHT22;47213;52.362;4.606;2023-08-08T05:44:28;17.20;85.60
61339;DHT22;47213;52.362;4.606;2023-08-08T05:49:28;17.40;84.70
61339;DHT22;47213;52.362;4.606;2023-08-08T05:59:28;17.50;85.40
61339;DHT22;47213;52.362;4.606;2023-08-08T06:04:28;17.40;85.70
61339;DHT22;47213;52.362;4.606;2023-08-08T06:09:28;17.50;89.00
61339;DHT22;47213;52.362;4.606;2023-08-08T06:14:28;17.30;88.10
61339;DHT22;47213;52.362;4.606;2023-08-08T06:19:28;17.40;87.60
61339;DHT22;47213;52.362;4.606;2023-08-08T06:24:28;17.50;88.60
61339;DHT22;47213;52.362;4.606;2023-08-08T06:29:28;17.70;87.50
61339;DHT22;47213;52.362;4.606;2023-08-08T06:34:28;17.60;86.70
61339;DHT22;47213;52.362;4.606;2023-08-08T06:39:28;17.70;88.40
61339;DHT22;47213;52.362;4.606;2023-08-08T06:44:28;17.90;90.30
61339;DHT22;47213;52.362;4.606;2023-08-08T06:49:28;17.60;89.50
61339;DHT22;47213;52.362;4.606;2023-08-08T06:54:28;17.90;87.80
61339;DHT22;47213;52.362;4.606;2023-08-08T07:04:28;17.80;90.80
61339;DHT22;47213;52.362;4.606;2023-08-08T07:19:28;18.00;92.20
61339;DHT22;47213;52.362;4.606;2023-08-08T07:24:28;17.80;91.40
61339;DHT22;47213;52.362;4.606;2023-08-08T07:29:28;18.10;91.40
61339;DHT22;47213;52.362;4.606;2023-08-08T07:39:28;18.20;91.50
61339;DHT22;47213;52.362;4.606;2023-08-08T07:44:28;18.30;90.60
61339;DHT22;47213;52.362;4.606;2023-08-08T07:49:28;17.90;90.60
61339;DHT22;47213;52.362;4.606;2023-08-08T07:54:28;18.10;88.70
61339;DHT22;47213;52.362;4.606;2023-08-08T07:59:28;18.20;90.40
61339;DHT22;47213;52.362;4.606;2023-08-08T08:04:28;18.30;89.00
61339;DHT22;47213;52.362;4.606;2023-08-08T08:14:28;18.40;88.30
61339;DHT22;47213;52.362;4.606;2023-08-08T08:29:28;18.80;89.10
61339;DHT22;47213;52.362;4.606;2023-08-08T08:34:28;18.70;87.30
61339;DHT22;47213;52.362;4.606;2023-08-08T08:39:28;18.80;86.10
61339;DHT22;47213;52.362;4.606;2023-08-08T08:44:30;18.70;85.20
61339;DHT22;47213;52.362;4.606;2023-08-08T08:49:30;18.90;84.80
61339;DHT22;47213;52.362;4.606;2023-08-08T08:54:28;18.70;82.90
61339;DHT22;47213;52.362;4.606;2023-08-08T08:59:28;19.10;83.00
61339;DHT22;47213;52.362;4.606;2023-08-08T09:04:29;18.90;83.80
61339;DHT22;47213;52.362;4.606;2023-08-08T09:14:28;18.50;82.50
61339;DHT22;47213;52.362;4.606;2023-08-08T09:19:28;19.00;86.70
61339;DHT22;47213;52.362;4.606;2023-08-08T09:24:28;19.30;84.10
61339;DHT22;47213;52.362;4.606;2023-08-08T09:29:28;19.50;82.40
61339;DHT22;47213;52.362;4.606;2023-08-08T09:34:28;19.10;78.20
61339;DHT22;47213;52.362;4.606;2023-08-08T09:39:28;19.50;79.20
61339;DHT22;47213;52.362;4.606;2023-08-08T09:44:29;19.30;79.40
61339;DHT22;47213;52.362;4.606;2023-08-08T09:59:29;19.80;81.90
61339;DHT22;47213;52.362;4.606;2023-08-08T10:04:29;20.10;80.00
61339;DHT22;47213;52.362;4.606;2023-08-08T10:14:29;20.30;77.80
61339;DHT22;47213;52.362;4.606;2023-08-08T10:24:33;21.00;73.40
61339;DHT22;47213;52.362;4.606;2023-08-08T10:29:29;22.40;69.00
61339;DHT22;47213;52.362;4.606;2023-08-08T10:34:44;23.30;61.10
61339;DHT22;47213;52.362;4.606;2023-08-08T10:44:29;23.40;53.80
61339;DHT22;47213;52.362;4.606;2023-08-08T10:49:29;23.80;51.60
61339;DHT22;47213;52.362;4.606;2023-08-08T10:54:29;23.90;50.10
61339;DHT22;47213;52.362;4.606;2023-08-08T10:59:36;23.10;49.80
61339;DHT22;47213;52.362;4.606;2023-08-08T11:04:29;23.50;51.60
61339;DHT22;47213;52.362;4.606;2023-08-08T11:09:29;23.10;52.30
61339;DHT22;47213;52.362;4.606;2023-08-08T11:14:29;22.30;50.80
61339;DHT22;47213;52.362;4.606;2023-08-08T11:19:29;23.50;55.70
61339;DHT22;47213;52.362;4.606;2023-08-08T11:24:34;22.50;50.40
61339;DHT22;47213;52.362;4.606;2023-08-08T11:29:29;22.90;53.00
61339;DHT22;47213;52.362;4.606;2023-08-08T11:34:30;22.80;51.00
61339;DHT22;47213;52.362;4.606;2023-08-08T11:39:29;23.20;53.20
61339;DHT22;47213;52.362;4.606;2023-08-08T11:44:29;21.90;49.50
61339;DHT22;47213;52.362;4.606;2023-08-08T11:49:29;21.50;55.20
61339;DHT22;47213;52.362;4.606;2023-08-08T11:59:30;21.20;57.90
61339;DHT22;47213;52.362;4.606;2023-08-08T12:04:29;21.00;59.20
61339;DHT22;47213;52.362;4.606;2023-08-08T12:09:31;21.60;60.00
61339;DHT22;47213;52.362;4.606;2023-08-08T12:14:29;21.70;61.70
61339;DHT22;47213;52.362;4.606;2023-08-08T12:19:29;21.60;61.70
61339;DHT22;47213;52.362;4.606;2023-08-08T12:24:29;21.50;61.00
61339;DHT22;47213;52.362;4.606;2023-08-08T12:29:29;21.30;61.10
61339;DHT22;47213;52.362;4.606;2023-08-08T12:39:29;21.40;61.70
61339;DHT22;47213;52.362;4.606;2023-08-08T12:44:29;21.50;63.30
61339;DHT22;47213;52.362;4.606;2023-08-08T12:49:29;21.80;60.90
61339;DHT22;47213;52.362;4.606;2023-08-08T12:54:29;22.00;58.90
61339;DHT22;47213;52.362;4.606;2023-08-08T12:59:29;21.90;56.60
61339;DHT22;47213;52.362;4.606;2023-08-08T13:04:29;21.40;58.20
61339;DHT22;47213;52.362;4.606;2023-08-08T13:09:29;21.20;57.80
61339;DHT22;47213;52.362;4.606;2023-08-08T13:14:29;20.70;60.40
61339;DHT22;47213;52.362;4.606;2023-08-08T13:19:29;20.60;61.40
61339;DHT22;47213;52.362;4.606;2023-08-08T13:24:29;20.70;61.30
61339;DHT22;47213;52.362;4.606;2023-08-08T13:29:29;20.50;62.00
61339;DHT22;47213;52.362;4.606;2023-08-08T13:39:29;20.70;63.90
61339;DHT22;47213;52.362;4.606;2023-08-08T13:44:29;20.80;62.30
61339;DHT22;47213;52.362;4.606;2023-08-08T13:49:29;20.90;61.70
61339;DHT22;47213;52.362;4.606;2023-08-08T13:54:29;20.20;62.70
61339;DHT22;47213;52.362;4.606;2023-08-08T13:59:29;20.30;65.70
61339;DHT22;47213;52.362;4.606;2023-08-08T14:04:29;20.60;65.30
61339;DHT22;47213;52.362;4.606;2023-08-08T14:09:29;20.80;65.00
61339;DHT22;47213;52.362;4.606;2023-08-08T14:14:29;21.00;63.70
61339;DHT22;47213;52.362;4.606;2023-08-08T14:19:29;21.10;63.10
61339;DHT22;47213;52.362;4.606;2023-08-08T14:24:29;21.20;62.00
61339;DHT22;47213;52.362;4.606;2023-08-08T14:29:29;21.00;60.40
61339;DHT22;47213;52.362;4.606;2023-08-08T14:39:29;20.60;61.40
61339;DHT22;47213;52.362;4.606;2023-08-08T14:44:29;20.40;64.50
61339;DHT22;47213;52.362;4.606;2023-08-08T14:49:29;20.60;66.50
61339;DHT22;47213;52.362;4.606;2023-08-08T14:59:29;20.30;64.00
61339;DHT22;47213;52.362;4.606;2023-08-08T15:04:29;20.00;65.00
61339;DHT22;47213;52.362;4.606;2023-08-08T15:09:29;20.20;64.30
61339;DHT22;47213;52.362;4.606;2023-08-08T15:14:29;20.40;66.60
61339;DHT22;47213;52.362;4.606;2023-08-08T15:19:29;20.70;66.00
61339;DHT22;47213;52.362;4.606;2023-08-08T15:24:29;20.50;62.80
61339;DHT22;47213;52.362;4.606;2023-08-08T15:29:29;20.40;63.60
61339;DHT22;47213;52.362;4.606;2023-08-08T15:34:29;20.50;64.70
61339;DHT22;47213;52.362;4.606;2023-08-08T15:39:29;20.10;61.90
61339;DHT22;47213;52.362;4.606;2023-08-08T15:44:29;19.90;61.60
61339;DHT22;47213;52.362;4.606;2023-08-08T15:54:29;19.80;62.30
61339;DHT22;47213;52.362;4.606;2023-08-08T15:59:30;19.90;64.50
61339;DHT22;47213;52.362;4.606;2023-08-08T16:04:30;19.80;62.90
61339;DHT22;47213;52.362;4.606;2023-08-08T16:09:30;19.70;60.40
61339;DHT22;47213;52.362;4.606;2023-08-08T16:14:30;19.80;64.60
61339;DHT22;47213;52.362;4.606;2023-08-08T16:19:30;19.60;64.20
61339;DHT22;47213;52.362;4.606;2023-08-08T16:24:30;19.50;63.60
61339;DHT22;47213;52.362;4.606;2023-08-08T16:29:30;19.40;64.60
61339;DHT22;47213;52.362;4.606;2023-08-08T16:39:30;19.30;65.40
61339;DHT22;47213;52.362;4.606;2023-08-08T16:49:30;19.00;68.80
61339;DHT22;47213;52.362;4.606;2023-08-08T16:54:30;19.20;69.00
61339;DHT22;47213;52.362;4.606;2023-08-08T16:59:30;19.00;71.50
61339;DHT22;47213;52.362;4.606;2023-08-08T17:04:30;19.10;67.00
61339;DHT22;47213;52.362;4.606;2023-08-08T17:09:30;18.90;65.70
61339;DHT22;47213;52.362;4.606;2023-08-08T17:14:30;18.80;70.50
61339;DHT22;47213;52.362;4.606;2023-08-08T17:24:30;18.60;73.00
61339;DHT22;47213;52.362;4.606;2023-08-08T17:29:30;18.70;70.10
61339;DHT22;47213;52.362;4.606;2023-08-08T17:34:30;18.60;71.00
61339;DHT22;47213;52.362;4.606;2023-08-08T17:39:30;18.40;75.10
61339;DHT22;47213;52.362;4.606;2023-08-08T17:44:30;18.30;83.20
61339;DHT22;47213;52.362;4.606;2023-08-08T17:54:30;18.10;86.30
61339;DHT22;47213;52.362;4.606;2023-08-08T18:09:30;18.20;87.80
61339;DHT22;47213;52.362;4.606;2023-08-08T18:14:30;18.40;90.20
61339;DHT22;47213;52.362;4.606;2023-08-08T18:19:30;18.50;91.80
61339;DHT22;47213;52.362;4.606;2023-08-08T18:24:30;18.60;92.50
61339;DHT22;47213;52.362;4.606;2023-08-08T18:29:30;18.70;92.90
61339;DHT22;47213;52.362;4.606;2023-08-08T18:34:30;18.40;94.20
61339;DHT22;47213;52.362;4.606;2023-08-08T18:39:30;18.50;93.70
61339;DHT22;47213;52.362;4.606;2023-08-08T18:44:30;18.20;93.10
61339;DHT22;47213;52.362;4.606;2023-08-08T18:49:30;18.00;90.30
61339;DHT22;47213;52.362;4.606;2023-08-08T18:59:30;18.10;91.90
61339;DHT22;47213;52.362;4.606;2023-08-08T19:09:30;18.20;95.10
61339;DHT22;47213;52.362;4.606;2023-08-08T19:19:30;18.10;99.90
61339;DHT22;47213;52.362;4.606;2023-08-08T19:39:30;18.20;99.90
61339;DHT22;47213;52.362;4.606;2023-08-08T19:44:30;18.30;99.90
61339;DHT22;47213;52.362;4.606;2023-08-08T19:49:30;18.20;99.90
61339;DHT22;47213;52.362;4.606;2023-08-08T19:54:30;18.30;99.90
61339;DHT22;47213;52.362;4.606;2023-08-08T20:09:30;18.20;99.90
61339;DHT22;47213;52.362;4.606;2023-08-08T20:14:30;18.30;99.90
61339;DHT22;47213;52.362;4.606;2023-08-08T20:24:30;18.50;99.90
61339;DHT22;47213;52.362;4.606;2023-08-08T20:29:30;18.40;99.90
61339;DHT22;47213;52.362;4.606;2023-08-08T20:34:30;18.30;99.90
61339;DHT22;47213;52.362;4.606;2023-08-08T20:39:30;18.10;99.90
61339;DHT22;47213;52.362;4.606;2023-08-08T20:44:30;18.20;99.90
61339;DHT22;47213;52.362;4.606;2023-08-08T20:49:30;18.10;99.90
61339;DHT22;47213;52.362;4.606;2023-08-08T20:54:30;18.00;99.90
61339;DHT22;47213;52.362;4.606;2023-08-08T21:09:30;18.10;99.90
61339;DHT22;47213;52.362;4.606;2023-08-08T21:14:30;18.20;99.90
61339;DHT22;47213;52.362;4.606;2023-08-08T21:19:30;18.10;99.90
61339;DHT22;47213;52.362;4.606;2023-08-08T21:24:30;18.20;99.90
61339;DHT22;47213;52.362;4.606;2023-08-08T21:29:30;18.00;99.90
61339;DHT22;47213;52.362;4.606;2023-08-08T21:34:31;17.90;99.90
61339;DHT22;47213;52.362;4.606;2023-08-08T21:59:30;17.70;99.90
61339;DHT22;47213;52.362;4.606;2023-08-08T22:19:30;17.80;99.90
61339;DHT22;47213;52.362;4.606;2023-08-08T22:29:31;17.70;99.90
61339;DHT22;47213;52.362;4.606;2023-08-08T22:34:31;17.80;99.90
61339;DHT22;47213;52.362;4.606;2023-08-08T22:39:31;17.90;99.90
61339;DHT22;47213;52.362;4.606;2023-08-08T22:44:31;17.80;99.90
61339;DHT22;47213;52.362;4.606;2023-08-08T22:49:31;17.70;99.90
61339;DHT22;47213;52.362;4.606;2023-08-08T22:54:31;18.00;99.90
61339;DHT22;47213;52.362;4.606;2023-08-08T23:09:31;17.70;99.90
61339;DHT22;47213;52.362;4.606;2023-08-08T23:14:31;17.90;99.90
61339;DHT22;47213;52.362;4.606;2023-08-08T23:19:31;17.80;99.90
61339;DHT22;47213;52.362;4.606;2023-08-08T23:24:31;17.90;99.90
61339;DHT22;47213;52.362;4.606;2023-08-08T23:34:31;17.80;99.90
61339;DHT22;47213;52.362;4.606;2023-08-08T23:39:31;17.90;99.90
61339;DHT22;47213;52.362;4.606;2023-08-08T23:44:31;17.80;99.90
61339;DHT22;47213;52.362;4.606;2023-08-08T23:49:31;17.90;99.90
61339;DHT22;47213;52.362;4.606;2023-08-08T23:54:31;17.80;99.90
